Time;durP1;ratioP1;P1;durP2;ratioP2;P2;SDS_P1;SDS_P2;PMS_P1;PMS_P2;Temp;Humidity;BMP_temperature;BMP_pressure;BME280_temperature;BME280_humidity;BME280_pressure;Samples;Min_cycle;Max_cycle;Signal;HPM_P1;HPM_P2
2022/11/08 00:01:39;;;;;;;3.57;3.47;;;20.20;95.80;;;;;;5032388;28;20540;-60
2022/11/08 00:04:07;;;;;;;2.80;2.80;;;20.20;95.80;;;;;;5033038;28;20888;-61
2022/11/08 00:14:49;;;;;;;3.57;3.40;;;20.20;96.00;;;;;;5032871;28;20508;-62
2022/11/08 00:17:19;;;;;;;3.40;3.30;;;20.20;96.10;;;;;;5032793;28;20447;-60
2022/11/08 00:19:45;;;;;;;4.63;4.43;;;20.10;96.10;;;;;;5032565;28;20524;-61
2022/11/08 00:22:13;;;;;;;3.77;3.47;;;20.20;96.20;;;;;;5032339;28;20471;-61
2022/11/08 00:24:40;;;;;;;3.60;3.50;;;20.10;96.20;;;;;;5032694;28;20926;-59
2022/11/08 00:27:10;;;;;;;3.23;3.13;;;20.10;96.20;;;;;;5032537;28;20826;-62
2022/11/08 00:29:37;;;;;;;4.70;4.50;;;20.10;96.20;;;;;;5032299;28;20437;-61
2022/11/08 00:32:06;;;;;;;3.47;3.37;;;20.10;96.20;;;;;;5031987;28;20488;-62
2022/11/08 00:34:34;;;;;;;3.80;3.70;;;20.10;96.20;;;;;;5032226;28;20456;-57
2022/11/08 00:37:02;;;;;;;3.10;3.00;;;20.10;96.20;;;;;;5032466;28;20528;-60
2022/11/08 00:39:29;;;;;;;3.50;3.40;;;20.10;96.30;;;;;;5031561;28;20480;-62
2022/11/08 00:41:56;;;;;;;3.37;3.27;;;20.10;96.30;;;;;;5031894;28;20848;-62
2022/11/08 00:44:22;;;;;;;3.87;3.67;;;20.10;96.40;;;;;;5032297;28;20441;-62
2022/11/08 00:46:49;;;;;;;3.50;3.40;;;20.10;96.80;;;;;;5032427;28;20814;-62
2022/11/08 00:49:16;;;;;;;3.50;3.40;;;20.10;96.40;;;;;;5032219;28;20484;-62
2022/11/08 00:51:44;;;;;;;3.50;3.40;;;20.10;96.80;;;;;;5031594;28;20504;-62
2022/11/08 00:54:14;;;;;;;3.43;3.33;;;20.10;96.50;;;;;;5031902;28;20468;-60
2022/11/08 00:56:41;;;;;;;3.30;3.20;;;20.10;96.50;;;;;;5032126;28;20507;-62
2022/11/08 00:59:10;;;;;;;2.97;2.97;;;20.10;96.50;;;;;;5031918;28;20469;-61
2022/11/08 01:01:37;;;;;;;3.03;3.03;;;20.10;96.60;;;;;;5031480;28;20532;-62
2022/11/08 01:04:04;;;;;;;3.23;3.13;;;20.10;96.90;;;;;;5032013;28;20846;-62
2022/11/08 01:06:31;;;;;;;4.10;4.00;;;20.10;96.60;;;;;;5031498;28;20449;-62
2022/11/08 01:08:59;;;;;;;3.30;3.20;;;20.10;96.70;;;;;;5031919;28;20481;-62
2022/11/08 01:11:27;;;;;;;3.00;2.90;;;20.10;96.70;;;;;;5031281;28;20986;-60
2022/11/08 01:13:56;;;;;;;3.13;3.10;;;20.10;96.70;;;;;;5031505;28;20448;-60
2022/11/08 01:16:25;;;;;;;3.80;3.70;;;20.00;96.70;;;;;;5031918;28;20464;-62
2022/11/08 01:18:54;;;;;;;3.63;3.53;;;20.00;96.70;;;;;;5031756;28;20439;-60
2022/11/08 01:21:21;;;;;;;3.17;3.07;;;20.10;96.70;;;;;;5031255;28;21005;-62
2022/11/08 01:23:48;;;;;;;3.30;3.20;;;20.00;96.70;;;;;;5031732;28;20473;-60
2022/11/08 01:26:18;;;;;;;3.57;3.47;;;20.00;96.80;;;;;;5031832;28;20447;-62
2022/11/08 01:28:46;;;;;;;3.40;3.30;;;20.00;96.70;;;;;;5031510;28;20506;-61
2022/11/08 01:31:14;;;;;;;3.30;3.20;;;20.00;96.80;;;;;;5031220;28;21014;-61
2022/11/08 01:33:42;;;;;;;3.57;3.50;;;20.00;96.90;;;;;;5032212;28;20514;-63
2022/11/08 01:36:10;;;;;;;3.83;3.33;;;20.00;96.90;;;;;;5032677;28;20536;-62
2022/11/08 01:38:37;;;;;;;3.30;3.20;;;20.00;96.90;;;;;;5032819;28;20536;-62
2022/11/08 01:41:04;;;;;;;3.93;3.83;;;20.00;96.90;;;;;;5032178;28;20453;-63
2022/11/08 01:43:41;;;;;;;3.43;3.27;;;20.00;97.00;;;;;;5012215;28;20545;-63
2022/11/08 01:46:36;;;;;;;3.20;3.10;;;20.00;97.00;;;;;;5012209;28;20446;-62
2022/11/08 01:49:28;;;;;;;3.37;3.27;;;20.00;97.00;;;;;;5012294;28;20903;-63
2022/11/08 01:52:02;;;;;;;3.47;3.37;;;20.00;97.10;;;;;;5027199;28;20496;-63
2022/11/08 01:54:35;;;;;;;3.53;3.43;;;20.00;97.10;;;;;;5031945;28;20491;-63
2022/11/08 01:57:05;;;;;;;3.27;3.07;;;20.00;97.20;;;;;;5031841;28;20448;-63
2022/11/08 01:59:35;;;;;;;3.03;2.93;;;20.00;97.20;;;;;;5031568;28;20536;-63
2022/11/08 02:02:02;;;;;;;3.97;3.83;;;20.00;97.50;;;;;;5031866;28;20551;-62
2022/11/08 02:04:29;;;;;;;3.60;3.50;;;20.00;97.20;;;;;;5032111;28;20536;-63
2022/11/08 02:06:56;;;;;;;3.30;3.20;;;20.00;97.30;;;;;;5031580;28;20879;-62
2022/11/08 02:09:23;;;;;;;3.60;3.47;;;19.90;97.30;;;;;;5031421;28;20481;-62
2022/11/08 02:11:51;;;;;;;3.53;3.40;;;20.00;97.30;;;;;;5031333;28;20825;-63
2022/11/08 02:14:18;;;;;;;2.90;2.80;;;20.00;97.40;;;;;;5031461;28;20535;-62
2022/11/08 02:16:46;;;;;;;3.40;3.30;;;20.00;97.40;;;;;;5031543;28;20480;-62
2022/11/08 02:19:22;;;;;;;3.23;3.03;;;20.00;97.40;;;;;;5035072;28;20850;-62
2022/11/08 02:21:55;;;;;;;3.30;3.20;;;20.00;97.40;;;;;;5034995;28;20547;-62
2022/11/08 02:24:23;;;;;;;3.27;3.17;;;20.00;97.40;;;;;;5035259;28;20479;-63
2022/11/08 02:26:52;;;;;;;4.33;4.03;;;20.00;97.50;;;;;;5034937;28;20809;-63
2022/11/08 02:29:27;;;;;;;3.33;3.23;;;20.00;97.50;;;;;;5034874;28;20487;-62
2022/11/08 02:31:54;;;;;;;3.13;3.03;;;20.00;97.50;;;;;;5034669;28;20494;-63
2022/11/08 02:34:24;;;;;;;3.03;2.93;;;20.00;97.50;;;;;;5035361;28;20448;-63
2022/11/08 02:36:51;;;;;;;3.60;3.50;;;20.00;97.50;;;;;;5035369;28;20527;-63
2022/11/08 02:39:18;;;;;;;3.30;3.20;;;20.00;97.50;;;;;;5035041;28;20441;-63
2022/11/08 02:41:46;;;;;;;3.03;3.00;;;20.00;97.50;;;;;;5034508;28;20467;-62
2022/11/08 02:44:13;;;;;;;3.43;3.23;;;20.00;97.50;;;;;;5034567;28;20447;-62
2022/11/08 02:46:40;;;;;;;3.50;3.30;;;20.00;97.50;;;;;;5034851;28;20451;-63
2022/11/08 02:49:06;;;;;;;3.90;3.73;;;20.00;97.50;;;;;;5034533;28;20477;-62
2022/11/08 02:51:33;;;;;;;3.43;3.33;;;20.00;97.50;;;;;;5034491;28;20476;-63
2022/11/08 02:54:00;;;;;;;3.47;3.37;;;20.00;97.80;;;;;;5034590;28;20484;-62
2022/11/08 02:56:27;;;;;;;2.77;2.77;;;19.90;97.50;;;;;;5034426;28;20542;-62
2022/11/08 02:58:55;;;;;;;3.53;3.43;;;20.00;97.60;;;;;;5034080;28;20447;-63
2022/11/08 03:01:22;;;;;;;3.07;3.07;;;20.00;97.60;;;;;;5034496;28;20531;-63
2022/11/08 03:03:49;;;;;;;2.97;2.97;;;20.00;97.60;;;;;;5034610;28;20511;-62
2022/11/08 03:06:16;;;;;;;3.10;3.00;;;19.90;97.60;;;;;;5034530;28;20448;-62
2022/11/08 03:08:43;;;;;;;3.30;3.20;;;19.90;97.60;;;;;;5034358;28;20515;-62
2022/11/08 03:11:09;;;;;;;3.40;3.30;;;19.90;97.50;;;;;;5033983;28;20471;-62
2022/11/08 03:13:36;;;;;;;3.20;3.10;;;19.90;97.60;;;;;;5034217;28;20465;-62
2022/11/08 03:16:06;;;;;;;3.33;3.23;;;19.90;97.60;;;;;;5034201;28;20862;-62
2022/11/08 03:18:33;;;;;;;3.23;3.13;;;19.90;97.60;;;;;;5033945;28;20448;-62
2022/11/08 03:21:01;;;;;;;3.00;3.00;;;19.90;97.60;;;;;;5033883;28;20485;-63
2022/11/08 03:23:28;;;;;;;3.43;3.23;;;19.90;97.60;;;;;;5033901;28;20465;-62
2022/11/08 03:25:54;;;;;;;3.40;3.40;;;19.90;97.60;;;;;;5034052;28;20532;-63
2022/11/08 03:28:21;;;;;;;3.60;3.50;;;19.90;97.60;;;;;;5033354;28;20816;-62
2022/11/08 03:30:50;;;;;;;3.23;3.10;;;19.90;97.70;;;;;;5033775;28;20441;-62
2022/11/08 03:33:19;;;;;;;2.80;2.70;;;19.90;97.60;;;;;;5033605;28;20476;-62
2022/11/08 03:35:47;;;;;;;2.90;2.90;;;19.90;97.60;;;;;;5034070;28;20453;-63
2022/11/08 03:38:14;;;;;;;3.10;3.00;;;19.90;97.60;;;;;;5034458;28;20453;-62
2022/11/08 03:40:41;;;;;;;3.00;3.00;;;19.90;97.60;;;;;;5034062;28;20456;-62
2022/11/08 03:43:08;;;;;;;2.97;2.87;;;19.90;97.60;;;;;;5033740;28;20898;-62
2022/11/08 03:45:35;;;;;;;3.37;3.27;;;19.90;97.70;;;;;;5033881;28;20449;-62
2022/11/08 03:48:01;;;;;;;3.20;3.10;;;19.90;97.70;;;;;;5033467;28;21018;-62
2022/11/08 03:50:30;;;;;;;2.60;2.60;;;19.90;97.70;;;;;;5033473;28;20461;-62
2022/11/08 03:52:57;;;;;;;3.30;3.20;;;19.90;97.80;;;;;;5033841;28;20469;-63
2022/11/08 03:55:25;;;;;;;3.30;3.20;;;19.90;97.90;;;;;;5033751;28;20443;-63
2022/11/08 03:57:53;;;;;;;2.87;2.87;;;19.90;97.80;;;;;;5033561;28;20481;-62
2022/11/08 04:00:21;;;;;;;3.20;3.00;;;19.90;97.90;;;;;;5033571;28;20839;-63
2022/11/08 04:02:49;;;;;;;3.10;3.10;;;19.90;97.80;;;;;;5033641;28;20536;-63
2022/11/08 04:05:16;;;;;;;3.00;3.00;;;19.90;97.80;;;;;;5033091;28;20524;-62
2022/11/08 04:07:45;;;;;;;3.43;3.37;;;19.90;97.80;;;;;;5013535;28;20477;-62
2022/11/08 04:10:12;;;;;;;3.33;3.23;;;19.90;98.10;;;;;;5013046;28;21034;-62
2022/11/08 04:15:25;;;;;;;3.00;2.90;;;19.90;97.90;;;;;;5028259;28;20445;-63
2022/11/08 04:23:24;;;;;;;4.17;3.93;;;19.90;97.90;;;;;;5032858;28;20860;-62
2022/11/08 04:25:55;;;;;;;3.13;3.13;;;19.90;97.80;;;;;;5032723;28;20441;-63
2022/11/08 04:28:24;;;;;;;3.23;3.13;;;19.90;97.80;;;;;;5032781;28;20926;-62
2022/11/08 04:30:55;;;;;;;3.73;3.43;;;19.90;97.80;;;;;;5032543;28;20445;-63
2022/11/08 04:33:23;;;;;;;3.70;3.60;;;19.90;97.80;;;;;;5032909;28;20468;-63
2022/11/08 04:35:50;;;;;;;3.23;3.13;;;19.90;97.80;;;;;;5032748;28;20478;-62
2022/11/08 04:38:17;;;;;;;3.30;3.10;;;19.90;97.80;;;;;;5033343;28;20471;-63
2022/11/08 04:40:46;;;;;;;3.20;3.10;;;19.90;97.80;;;;;;5031794;28;20536;-62
2022/11/08 04:43:13;;;;;;;3.40;3.30;;;19.90;97.80;;;;;;5032426;28;21039;-62
2022/11/08 04:45:41;;;;;;;3.00;2.90;;;19.90;97.80;;;;;;5032455;28;20924;-62
2022/11/08 04:48:08;;;;;;;3.00;2.90;;;19.90;97.80;;;;;;5032421;28;20447;-62
2022/11/08 04:50:35;;;;;;;3.00;3.00;;;19.90;97.80;;;;;;5032337;28;20572;-62
2022/11/08 04:53:02;;;;;;;3.50;3.40;;;19.90;97.70;;;;;;5032349;28;20491;-63
2022/11/08 04:55:29;;;;;;;3.93;3.73;;;19.90;97.80;;;;;;5032074;28;20451;-63
2022/11/08 04:57:59;;;;;;;3.13;3.13;;;19.90;97.90;;;;;;5032060;28;20471;-63
2022/11/08 05:00:27;;;;;;;3.20;3.20;;;19.80;97.90;;;;;;5032092;28;20447;-63
2022/11/08 05:02:54;;;;;;;3.50;3.40;;;19.80;97.80;;;;;;5032724;28;20861;-63
2022/11/08 05:05:21;;;;;;;3.27;3.20;;;19.90;97.80;;;;;;5031986;28;20449;-62
2022/11/08 05:07:48;;;;;;;3.63;3.53;;;19.90;97.90;;;;;;5032145;28;20957;-62
2022/11/08 05:10:15;;;;;;;3.20;3.10;;;19.90;97.80;;;;;;5031891;28;20925;-62
2022/11/08 05:12:42;;;;;;;3.93;3.77;;;19.90;97.70;;;;;;5031889;28;20467;-62
2022/11/08 05:15:11;;;;;;;3.77;3.67;;;19.90;97.60;;;;;;5031709;28;20448;-62
2022/11/08 05:17:38;;;;;;;5.10;4.80;;;19.90;97.50;;;;;;5031990;28;20966;-63
2022/11/08 05:25:39;;;;;;;14.03;5.93;;;19.90;99.90;;;;;;5028083;28;20514;-63
2022/11/08 05:28:05;;;;;;;12.23;6.40;;;19.90;99.90;;;;;;5025882;28;20449;-65
2022/11/08 05:30:34;;;;;;;13.10;6.30;;;20.00;99.90;;;;;;5031405;28;20568;-66
2022/11/08 05:33:00;;;;;;;9.47;7.40;;;20.00;99.90;;;;;;5031641;28;20477;-66
2022/11/08 05:35:27;;;;;;;6.87;5.87;;;20.00;99.90;;;;;;5031479;28;20451;-65
2022/11/08 05:37:54;;;;;;;7.70;5.80;;;20.00;99.90;;;;;;5031533;28;20519;-66
2022/11/08 05:40:21;;;;;;;6.63;5.80;;;20.10;99.90;;;;;;5031303;28;20483;-65
2022/11/08 05:42:48;;;;;;;12.33;5.73;;;20.10;99.90;;;;;;5031336;28;21041;-66
2022/11/08 05:45:15;;;;;;;7.33;6.50;;;20.10;99.90;;;;;;5031537;28;20535;-66
2022/11/08 05:47:45;;;;;;;8.03;6.10;;;20.10;99.90;;;;;;5031505;28;20472;-65
2022/11/08 05:50:12;;;;;;;7.30;6.70;;;20.10;99.90;;;;;;5031217;28;20523;-66
2022/11/08 05:52:39;;;;;;;6.37;5.10;;;20.10;99.90;;;;;;5034621;28;20473;-66
2022/11/08 05:55:07;;;;;;;10.93;7.00;;;20.10;99.90;;;;;;5035433;28;20472;-66
2022/11/08 05:57:34;;;;;;;12.80;6.47;;;20.10;99.90;;;;;;5035445;28;20480;-65
2022/11/08 06:00:00;;;;;;;13.27;6.90;;;20.10;99.90;;;;;;5035223;28;20478;-66
2022/11/08 06:02:28;;;;;;;5.93;5.33;;;20.10;99.90;;;;;;5035189;28;21004;-66
2022/11/08 06:04:56;;;;;;;7.43;6.60;;;20.10;99.70;;;;;;5035277;28;20445;-65
2022/11/08 06:07:23;;;;;;;8.53;5.63;;;20.10;99.50;;;;;;5035263;28;20440;-65
2022/11/08 06:09:50;;;;;;;6.30;5.70;;;20.10;99.40;;;;;;5034997;28;20485;-65
2022/11/08 06:12:17;;;;;;;6.93;6.27;;;20.10;99.20;;;;;;5035036;28;20460;-65
2022/11/08 06:14:44;;;;;;;7.00;6.40;;;20.20;99.10;;;;;;5035123;28;20446;-66
2022/11/08 06:17:10;;;;;;;6.97;6.37;;;20.20;99.00;;;;;;5035011;28;20449;-65
2022/11/08 06:19:37;;;;;;;5.27;4.80;;;20.20;98.80;;;;;;5035003;28;20443;-66
2022/11/08 06:22:05;;;;;;;6.97;6.27;;;20.20;98.70;;;;;;5034838;28;20461;-65
2022/11/08 06:24:32;;;;;;;9.30;6.27;;;20.10;98.50;;;;;;5034906;28;20913;-66
2022/11/08 06:26:59;;;;;;;5.97;5.17;;;20.10;98.40;;;;;;5035154;28;20484;-65
2022/11/08 06:29:26;;;;;;;5.50;5.00;;;20.10;98.30;;;;;;5034748;28;20485;-65
2022/11/08 06:31:53;;;;;;;6.93;5.60;;;20.10;98.20;;;;;;5034397;28;20933;-65
2022/11/08 06:34:20;;;;;;;6.03;5.63;;;20.10;98.10;;;;;;5034876;28;20859;-66
2022/11/08 06:36:47;;;;;;;4.97;4.63;;;20.10;98.00;;;;;;5034678;28;20527;-65
2022/11/08 06:39:15;;;;;;;6.53;5.90;;;20.10;97.90;;;;;;5034639;28;20448;-66
2022/11/08 06:41:42;;;;;;;5.63;5.23;;;20.20;97.80;;;;;;5034389;28;20449;-65
2022/11/08 06:44:09;;;;;;;5.37;5.07;;;20.10;97.60;;;;;;5034716;28;20440;-65
2022/11/08 06:46:35;;;;;;;5.80;5.47;;;20.10;97.50;;;;;;5034474;28;20930;-65
2022/11/08 06:49:02;;;;;;;5.40;5.20;;;20.10;97.40;;;;;;5034576;28;20452;-65
2022/11/08 06:51:29;;;;;;;5.93;5.40;;;20.10;97.40;;;;;;5034015;28;20560;-65
2022/11/08 06:53:56;;;;;;;5.47;5.07;;;20.10;97.60;;;;;;5034300;28;20449;-65
2022/11/08 06:56:24;;;;;;;5.70;5.20;;;20.10;97.20;;;;;;5034417;28;20535;-65
2022/11/08 06:58:51;;;;;;;5.27;4.97;;;20.10;97.10;;;;;;5034313;28;20540;-65
2022/11/08 07:01:18;;;;;;;5.53;5.13;;;20.10;97.10;;;;;;5033988;28;20441;-65
2022/11/08 07:03:45;;;;;;;4.87;4.47;;;20.10;97.10;;;;;;5033314;28;20970;-65
2022/11/08 07:06:12;;;;;;;4.80;4.50;;;20.10;97.10;;;;;;5034270;28;20456;-65
2022/11/08 07:08:39;;;;;;;5.20;4.90;;;20.10;97.10;;;;;;5034138;28;20457;-65
2022/11/08 07:11:06;;;;;;;5.07;4.77;;;20.10;97.00;;;;;;5033717;28;21017;-65
2022/11/08 07:13:34;;;;;;;6.33;5.73;;;20.10;97.00;;;;;;5033892;28;20465;-66
2022/11/08 07:16:02;;;;;;;5.57;5.27;;;20.20;97.00;;;;;;5033945;28;20491;-65
2022/11/08 07:18:29;;;;;;;5.03;4.83;;;20.20;97.00;;;;;;5033896;28;20453;-65
2022/11/08 07:20:59;;;;;;;5.40;4.83;;;20.20;97.00;;;;;;5033696;28;20467;-65
2022/11/08 07:23:25;;;;;;;5.30;4.90;;;20.20;97.20;;;;;;5033709;28;20508;-65
2022/11/08 07:25:52;;;;;;;5.47;5.27;;;20.20;96.80;;;;;;5033745;28;20994;-65
2022/11/08 07:28:20;;;;;;;4.67;4.47;;;20.20;97.10;;;;;;5033743;28;20540;-65
2022/11/08 07:30:49;;;;;;;5.30;5.00;;;20.20;96.70;;;;;;5033533;28;20480;-65
2022/11/08 07:33:16;;;;;;;5.70;5.40;;;20.20;96.70;;;;;;5068555;22;20579;-65
2022/11/08 07:35:45;;;;;;;5.50;5.20;;;20.20;96.60;;;;;;5040791;28;20473;-65
2022/11/08 07:38:12;;;;;;;5.37;5.00;;;20.20;96.50;;;;;;5033676;28;20437;-65
2022/11/08 07:40:39;;;;;;;5.80;5.40;;;20.20;96.40;;;;;;5033314;28;20928;-64
2022/11/08 07:43:05;;;;;;;5.03;4.63;;;20.20;96.40;;;;;;5033453;28;20551;-64
2022/11/08 07:45:32;;;;;;;5.07;4.77;;;20.20;96.30;;;;;;5033475;28;20952;-65
2022/11/08 07:48:02;;;;;;;4.60;4.40;;;20.20;96.30;;;;;;5033380;28;20536;-65
2022/11/08 07:50:30;;;;;;;4.67;4.47;;;20.20;96.20;;;;;;5032983;28;20912;-65
2022/11/08 07:52:57;;;;;;;4.77;4.57;;;20.20;96.20;;;;;;5033243;28;20467;-65
2022/11/08 07:55:24;;;;;;;5.47;5.17;;;20.20;96.10;;;;;;5033362;28;20445;-64
2022/11/08 07:57:55;;;;;;;4.70;4.50;;;20.20;96.10;;;;;;5033236;28;20532;-65
2022/11/08 08:00:22;;;;;;;4.87;4.67;;;20.20;96.00;;;;;;5033109;28;20865;-65
2022/11/08 08:02:49;;;;;;;5.00;4.70;;;20.20;96.00;;;;;;5033034;28;20467;-65
2022/11/08 08:05:17;;;;;;;4.80;4.50;;;20.20;95.90;;;;;;5033075;28;20961;-65
2022/11/08 08:07:44;;;;;;;4.50;4.30;;;20.20;95.90;;;;;;5033003;28;20445;-64
2022/11/08 08:10:11;;;;;;;4.30;4.20;;;20.20;95.80;;;;;;5032711;28;20481;-65
2022/11/08 08:12:38;;;;;;;4.63;4.43;;;20.20;95.80;;;;;;5032780;28;20988;-65
2022/11/08 08:15:05;;;;;;;5.50;5.20;;;20.20;95.70;;;;;;5032924;28;20445;-65
2022/11/08 08:17:32;;;;;;;4.30;4.20;;;20.20;95.70;;;;;;5032776;28;20524;-65
2022/11/08 08:19:59;;;;;;;5.30;5.00;;;20.20;95.70;;;;;;5032641;28;20449;-65
2022/11/08 08:22:27;;;;;;;4.90;4.63;;;20.20;95.60;;;;;;5032642;28;20586;-65
2022/11/08 08:24:54;;;;;;;4.47;4.37;;;20.20;95.60;;;;;;5032626;28;20441;-65
2022/11/08 08:27:21;;;;;;;4.60;4.50;;;20.20;95.60;;;;;;5032714;28;20537;-64
2022/11/08 08:29:47;;;;;;;4.20;4.00;;;20.20;95.50;;;;;;5032368;28;20476;-65
2022/11/08 08:32:14;;;;;;;4.53;4.17;;;20.20;95.50;;;;;;5032345;28;20473;-65
2022/11/08 08:34:41;;;;;;;4.13;4.03;;;20.20;95.50;;;;;;5032643;28;20807;-65
2022/11/08 08:37:08;;;;;;;4.53;4.20;;;20.20;95.50;;;;;;5032386;28;20448;-65
2022/11/08 08:39:37;;;;;;;4.97;4.67;;;20.10;95.50;;;;;;5032302;28;20449;-65
2022/11/08 08:42:03;;;;;;;5.40;5.20;;;20.10;95.40;;;;;;5032367;28;20816;-63
2022/11/08 08:44:30;;;;;;;4.80;4.60;;;20.10;95.40;;;;;;5032292;28;20437;-65
2022/11/08 08:46:57;;;;;;;4.50;4.40;;;20.10;95.40;;;;;;5032248;28;20479;-65
2022/11/08 08:49:24;;;;;;;3.97;3.87;;;20.20;95.40;;;;;;5032276;28;20448;-65
2022/11/08 08:51:51;;;;;;;4.50;4.40;;;20.20;95.40;;;;;;5031803;28;20841;-64
2022/11/08 08:54:17;;;;;;;5.57;5.27;;;20.20;95.40;;;;;;5032288;28;20441;-65
2022/11/08 08:56:46;;;;;;;4.50;4.30;;;20.20;95.40;;;;;;5032160;28;20487;-65
2022/11/08 08:59:13;;;;;;;4.53;4.33;;;20.20;95.40;;;;;;5032098;28;20445;-65
2022/11/08 09:01:40;;;;;;;4.33;4.13;;;20.20;95.40;;;;;;5031859;28;20453;-65
2022/11/08 09:04:07;;;;;;;4.83;4.63;;;20.20;95.40;;;;;;5032014;28;20468;-65
2022/11/08 09:06:33;;;;;;;4.93;4.70;;;20.20;95.40;;;;;;5032003;28;20469;-65
2022/11/08 09:09:00;;;;;;;3.90;3.90;;;20.20;95.40;;;;;;5031907;28;20447;-65
2022/11/08 09:11:27;;;;;;;4.00;3.90;;;20.20;95.40;;;;;;5031645;28;21024;-65
2022/11/08 09:13:55;;;;;;;5.30;4.90;;;20.20;95.40;;;;;;5031767;28;20558;-65
2022/11/08 09:16:22;;;;;;;5.10;4.80;;;20.20;95.40;;;;;;5031849;28;20476;-65
2022/11/08 09:18:49;;;;;;;4.40;4.30;;;20.20;95.40;;;;;;5031828;28;20839;-65
2022/11/08 09:21:16;;;;;;;4.80;4.50;;;20.20;95.40;;;;;;5031625;28;20863;-64
2022/11/08 09:23:43;;;;;;;4.43;4.13;;;20.20;95.30;;;;;;5031758;28;20465;-65
2022/11/08 09:26:11;;;;;;;4.17;4.07;;;20.20;95.30;;;;;;5031310;28;20465;-64
2022/11/08 09:28:38;;;;;;;4.23;4.13;;;20.20;95.30;;;;;;5031771;28;20500;-64
2022/11/08 09:31:08;;;;;;;3.90;3.80;;;20.20;95.20;;;;;;5031548;28;20481;-65
2022/11/08 09:33:35;;;;;;;4.63;4.43;;;20.20;95.20;;;;;;5031462;28;21020;-65
2022/11/08 09:36:03;;;;;;;4.20;4.10;;;20.30;95.20;;;;;;5031697;28;20905;-65
2022/11/08 09:38:30;;;;;;;4.50;4.30;;;20.20;95.10;;;;;;5031624;28;21009;-65
2022/11/08 09:41:22;;;;;;;4.30;4.20;;;20.30;95.10;;;;;;5031385;28;20524;-65
2022/11/08 09:44:03;;;;;;;4.13;4.03;;;20.30;95.10;;;;;;5031418;28;20464;-65
2022/11/08 09:46:40;;;;;;;4.37;4.17;;;20.30;95.00;;;;;;5031560;28;20928;-64
2022/11/08 09:49:15;;;;;;;4.43;4.33;;;20.30;95.00;;;;;;5031513;28;20441;-64
2022/11/08 09:51:42;;;;;;;4.40;4.30;;;20.30;95.00;;;;;;5031189;28;20479;-64
2022/11/08 09:54:16;;;;;;;5.10;4.90;;;20.30;94.90;;;;;;5031348;28;20835;-65
2022/11/08 09:56:43;;;;;;;4.80;4.70;;;20.30;94.90;;;;;;5031550;28;20871;-65
2022/11/08 09:59:20;;;;;;;4.73;4.63;;;20.30;94.90;;;;;;5031490;28;20879;-64
2022/11/08 10:01:49;;;;;;;4.40;4.30;;;20.30;94.80;;;;;;5031027;28;20447;-65
2022/11/08 10:04:18;;;;;;;4.17;4.03;;;20.30;94.80;;;;;;5031337;28;20445;-65
2022/11/08 10:06:58;;;;;;;4.40;4.20;;;20.30;94.80;;;;;;5031296;28;20476;-65
2022/11/08 10:09:43;;;;;;;4.70;4.53;;;20.20;94.70;;;;;;5031563;28;20448;-65
2022/11/08 10:12:19;;;;;;;4.33;4.23;;;20.30;94.80;;;;;;5031073;28;20576;-65
2022/11/08 10:15:02;;;;;;;4.10;4.00;;;20.30;94.80;;;;;;5031275;28;20471;-65
2022/11/08 10:17:42;;;;;;;4.23;4.13;;;20.30;94.80;;;;;;5031261;28;20524;-65
2022/11/08 10:20:20;;;;;;;4.30;4.10;;;20.30;94.70;;;;;;5031153;28;20978;-65
2022/11/08 10:22:53;;;;;;;4.10;4.00;;;20.30;94.70;;;;;;5031099;28;20829;-65
2022/11/08 10:25:24;;;;;;;4.00;3.90;;;20.20;94.70;;;;;;5031334;28;20528;-65
2022/11/08 10:27:54;;;;;;;4.00;3.90;;;20.20;94.70;;;;;;5031156;28;20441;-65
2022/11/08 10:30:23;;;;;;;3.80;3.70;;;20.20;94.60;;;;;;5031003;28;20484;-65
2022/11/08 10:32:54;;;;;;;4.53;4.43;;;20.20;94.60;;;;;;5030858;28;20481;-65
2022/11/08 10:35:27;;;;;;;3.93;3.80;;;20.20;94.60;;;;;;5031152;28;20445;-65
2022/11/08 10:37:57;;;;;;;4.30;4.13;;;20.20;94.60;;;;;;5031364;28;20532;-65
2022/11/08 10:40:35;;;;;;;4.47;4.37;;;20.20;94.60;;;;;;5034536;28;20471;-65
2022/11/08 10:43:08;;;;;;;4.00;3.90;;;20.20;94.50;;;;;;5034516;28;20532;-65
2022/11/08 10:45:35;;;;;;;4.63;4.43;;;20.20;94.50;;;;;;5034528;28;20484;-65
2022/11/08 10:48:03;;;;;;;4.13;4.03;;;20.20;94.50;;;;;;5034521;28;20441;-65
2022/11/08 10:50:39;;;;;;;4.57;4.20;;;20.20;94.50;;;;;;5034253;28;20542;-65
2022/11/08 10:53:12;;;;;;;4.13;4.03;;;20.30;94.60;;;;;;5034451;28;20500;-65
2022/11/08 10:55:48;;;;;;;4.50;4.40;;;20.30;94.60;;;;;;5034402;28;20528;-66
2022/11/08 10:58:32;;;;;;;4.13;4.03;;;20.30;94.60;;;;;;5034502;28;20548;-65
2022/11/08 11:01:01;;;;;;;4.67;4.57;;;20.30;94.60;;;;;;5034088;28;20517;-64
2022/11/08 11:03:29;;;;;;;4.73;4.63;;;20.30;94.60;;;;;;5034214;28;20471;-65
2022/11/08 11:06:00;;;;;;;5.00;4.87;;;20.30;94.50;;;;;;5034197;28;20945;-65
2022/11/08 11:08:27;;;;;;;3.90;3.80;;;20.30;94.50;;;;;;5034185;28;20447;-65
2022/11/08 11:10:54;;;;;;;4.70;4.57;;;20.30;94.50;;;;;;5033809;28;20481;-65
2022/11/08 11:13:23;;;;;;;4.77;4.57;;;20.30;94.50;;;;;;5034002;28;20491;-63
2022/11/08 11:15:52;;;;;;;5.10;4.90;;;20.30;94.40;;;;;;5033984;28;20877;-65
2022/11/08 11:18:25;;;;;;;4.20;4.10;;;20.30;94.40;;;;;;5034048;28;20451;-65
2022/11/08 11:21:07;;;;;;;4.20;4.10;;;20.40;94.40;;;;;;5033775;28;20441;-65
2022/11/08 11:23:37;;;;;;;4.70;4.60;;;20.40;94.40;;;;;;5033959;28;20475;-66
2022/11/08 11:26:05;;;;;;;5.17;5.07;;;20.40;94.30;;;;;;5033975;28;20890;-64
2022/11/08 11:28:34;;;;;;;4.47;4.37;;;20.40;94.30;;;;;;5033775;28;20532;-65
2022/11/08 11:31:04;;;;;;;4.63;4.53;;;20.40;94.30;;;;;;5033498;28;20481;-65
2022/11/08 11:33:32;;;;;;;5.37;5.07;;;20.40;94.30;;;;;;5033451;28;20496;-64
2022/11/08 11:36:07;;;;;;;3.60;3.60;;;20.40;94.20;;;;;;5033688;28;20534;-65
2022/11/08 11:38:43;;;;;;;4.10;4.03;;;20.40;94.50;;;;;;5033715;28;20957;-64
2022/11/08 11:41:15;;;;;;;3.77;3.70;;;20.40;94.20;;;;;;5033372;28;20787;-66
2022/11/08 11:43:46;;;;;;;4.30;4.20;;;20.40;94.10;;;;;;5033455;28;21041;-64
2022/11/08 11:46:20;;;;;;;4.40;4.30;;;20.40;94.10;;;;;;5033576;28;20744;-65
2022/11/08 11:48:50;;;;;;;4.10;4.00;;;20.40;94.00;;;;;;5033107;28;20445;-66
2022/11/08 11:51:19;;;;;;;4.27;4.20;;;20.40;94.00;;;;;;5033110;28;20653;-66
2022/11/08 11:53:46;;;;;;;4.37;4.17;;;20.40;94.10;;;;;;5033235;28;20469;-66
2022/11/08 11:56:39;;;;;;;4.00;3.90;;;20.40;94.00;;;;;;5033253;28;20452;-66
2022/11/08 11:59:45;;;;;;;3.90;3.80;;;20.40;93.90;;;;;;5033299;28;20935;-65
2022/11/08 12:02:35;;;;;;;4.10;4.00;;;20.50;94.00;;;;;;5024895;28;20472;-65
2022/11/08 12:05:18;;;;;;;4.17;4.07;;;20.40;93.90;;;;;;5033152;28;21010;-65
2022/11/08 12:07:56;;;;;;;4.30;4.20;;;20.40;93.90;;;;;;5033104;28;20540;-65
2022/11/08 12:10:28;;;;;;;4.30;4.20;;;20.40;93.90;;;;;;5032958;28;20440;-65
2022/11/08 12:13:03;;;;;;;4.33;4.17;;;20.40;93.90;;;;;;5032874;28;20481;-65
2022/11/08 12:15:35;;;;;;;4.00;3.90;;;20.40;93.90;;;;;;5032845;28;20476;-65
2022/11/08 12:18:29;;;;;;;4.10;4.00;;;20.40;93.80;;;;;;5032902;28;20875;-65
2022/11/08 12:21:03;;;;;;;4.13;4.03;;;20.40;93.90;;;;;;5032657;28;20492;-65
2022/11/08 12:24:01;;;;;;;3.63;3.63;;;20.40;93.80;;;;;;5032685;28;20487;-65
2022/11/08 12:26:32;;;;;;;4.07;3.97;;;20.40;93.80;;;;;;5032750;28;20452;-65
2022/11/08 12:29:18;;;;;;;4.07;3.97;;;20.40;93.80;;;;;;5032660;28;20520;-65
2022/11/08 12:31:54;;;;;;;3.80;3.70;;;20.40;93.80;;;;;;5032414;28;20567;-65
2022/11/08 12:34:23;;;;;;;4.33;4.23;;;20.40;93.80;;;;;;5032653;28;20472;-65
2022/11/08 12:37:15;;;;;;;4.00;3.90;;;20.40;93.80;;;;;;5032382;28;20607;-65
2022/11/08 12:39:47;;;;;;;4.33;4.23;;;20.40;93.80;;;;;;5032554;28;20788;-65
2022/11/08 12:42:37;;;;;;;4.20;4.10;;;20.40;93.70;;;;;;5032516;28;20463;-65
2022/11/08 12:45:31;;;;;;;4.00;3.90;;;20.40;93.70;;;;;;5032350;28;20452;-65
2022/11/08 12:48:07;;;;;;;4.20;4.10;;;20.40;93.70;;;;;;5032354;28;20787;-64
2022/11/08 12:50:43;;;;;;;4.10;4.00;;;20.40;94.10;;;;;;5032181;28;20531;-66
2022/11/08 12:53:39;;;;;;;4.07;3.97;;;20.40;93.70;;;;;;5032173;28;20456;-64
2022/11/08 12:56:13;;;;;;;3.80;3.80;;;20.40;93.90;;;;;;5031466;28;20860;-65
2022/11/08 12:58:45;;;;;;;4.03;4.00;;;20.40;93.80;;;;;;5032210;28;20486;-65
2022/11/08 13:01:13;;;;;;;3.73;3.63;;;20.40;94.10;;;;;;5031262;28;20516;-65
2022/11/08 13:04:00;;;;;;;4.20;4.00;;;20.40;93.80;;;;;;5032016;28;20471;-65
2022/11/08 13:06:34;;;;;;;4.00;3.90;;;20.40;93.80;;;;;;5032031;28;20449;-65
2022/11/08 13:09:11;;;;;;;3.97;3.87;;;20.40;93.80;;;;;;5032096;28;20532;-65
2022/11/08 13:11:45;;;;;;;4.43;4.33;;;20.40;93.80;;;;;;5031737;28;20847;-66
2022/11/08 13:14:15;;;;;;;3.77;3.67;;;20.50;93.90;;;;;;5031804;28;20472;-66
2022/11/08 13:16:44;;;;;;;3.73;3.67;;;20.50;93.90;;;;;;5032008;28;20452;-65
2022/11/08 13:19:28;;;;;;;4.13;4.03;;;20.50;93.90;;;;;;5031780;28;20499;-66
2022/11/08 13:21:56;;;;;;;3.40;3.40;;;20.50;93.90;;;;;;5031466;28;20441;-66